sensor_id;sensor_type;location;lat;lon;timestamp;P1;durP1;ratioP1;P2;durP2;ratioP2
7545;SDS011;3814;51.454;12.616;2023-04-19T04:51:03;5.55;;;2.33;;
7545;SDS011;3814;51.454;12.616;2023-04-19T04:53:28;4.95;;;2.00;;
7545;SDS011;3814;51.454;12.616;2023-04-19T04:55:57;8.13;;;2.35;;
7545;SDS011;3814;51.454;12.616;2023-04-19T04:58:22;4.63;;;1.90;;
7545;SDS011;3814;51.454;12.616;2023-04-19T05:00:47;3.65;;;1.77;;
7545;SDS011;3814;51.454;12.616;2023-04-19T05:03:13;5.63;;;1.90;;
7545;SDS011;3814;51.454;12.616;2023-04-19T05:05:39;5.65;;;1.80;;
7545;SDS011;3814;51.454;12.616;2023-04-19T05:08:04;4.47;;;2.00;;
7545;SDS011;3814;51.454;12.616;2023-04-19T05:10:30;4.57;;;2.22;;
7545;SDS011;3814;51.454;12.616;2023-04-19T05:12:55;5.47;;;1.90;;
7545;SDS011;3814;51.454;12.616;2023-04-19T05:15:20;4.07;;;2.00;;
7545;SDS011;3814;51.454;12.616;2023-04-19T05:17:46;4.82;;;1.85;;
7545;SDS011;3814;51.454;12.616;2023-04-19T05:20:12;4.20;;;1.83;;
7545;SDS011;3814;51.454;12.616;2023-04-19T05:22:40;4.47;;;1.90;;
7545;SDS011;3814;51.454;12.616;2023-04-19T05:25:06;4.30;;;2.30;;
7545;SDS011;3814;51.454;12.616;2023-04-19T05:27:32;4.25;;;2.00;;
7545;SDS011;3814;51.454;12.616;2023-04-19T05:29:57;4.05;;;1.85;;
7545;SDS011;3814;51.454;12.616;2023-04-19T05:32:22;6.38;;;1.92;;
7545;SDS011;3814;51.454;12.616;2023-04-19T05:34:48;5.45;;;2.20;;
7545;SDS011;3814;51.454;12.616;2023-04-19T05:37:14;3.92;;;1.90;;
7545;SDS011;3814;51.454;12.616;2023-04-19T05:39:42;5.97;;;2.10;;
7545;SDS011;3814;51.454;12.616;2023-04-19T05:44:40;4.50;;;1.80;;
7545;SDS011;3814;51.454;12.616;2023-04-19T05:47:05;4.35;;;1.98;;
7545;SDS011;3814;51.454;12.616;2023-04-19T05:49:30;5.97;;;2.17;;
7545;SDS011;3814;51.454;12.616;2023-04-19T05:51:56;4.13;;;1.75;;
7545;SDS011;3814;51.454;12.616;2023-04-19T05:54:21;4.53;;;1.90;;
7545;SDS011;3814;51.454;12.616;2023-04-19T05:56:47;3.80;;;1.83;;
7545;SDS011;3814;51.454;12.616;2023-04-19T05:59:12;5.15;;;2.17;;
7545;SDS011;3814;51.454;12.616;2023-04-19T06:01:38;3.75;;;1.55;;
7545;SDS011;3814;51.454;12.616;2023-04-19T06:04:03;4.50;;;1.92;;
7545;SDS011;3814;51.454;12.616;2023-04-19T06:06:29;4.82;;;1.90;;
7545;SDS011;3814;51.454;12.616;2023-04-19T06:08:54;4.75;;;1.88;;
7545;SDS011;3814;51.454;12.616;2023-04-19T06:11:19;5.15;;;1.85;;
7545;SDS011;3814;51.454;12.616;2023-04-19T06:13:45;4.90;;;1.60;;
7545;SDS011;3814;51.454;12.616;2023-04-19T06:16:10;4.43;;;1.77;;
7545;SDS011;3814;51.454;12.616;2023-04-19T06:18:35;3.72;;;1.60;;
7545;SDS011;3814;51.454;12.616;2023-04-19T06:21:01;3.60;;;1.92;;
7545;SDS011;3814;51.454;12.616;2023-04-19T06:23:26;3.70;;;1.70;;
7545;SDS011;3814;51.454;12.616;2023-04-19T06:25:51;3.58;;;1.70;;
7545;SDS011;3814;51.454;12.616;2023-04-19T06:28:17;3.95;;;1.83;;
7545;SDS011;3814;51.454;12.616;2023-04-19T06:30:42;3.17;;;1.63;;
7545;SDS011;3814;51.454;12.616;2023-04-19T06:33:07;5.15;;;1.75;;
7545;SDS011;3814;51.454;12.616;2023-04-19T06:35:33;2.85;;;1.42;;
7545;SDS011;3814;51.454;12.616;2023-04-19T06:37:58;5.07;;;2.00;;
7545;SDS011;3814;51.454;12.616;2023-04-19T06:40:24;3.50;;;1.80;;
7545;SDS011;3814;51.454;12.616;2023-04-19T06:42:50;4.43;;;1.40;;
7545;SDS011;3814;51.454;12.616;2023-04-19T06:45:15;3.38;;;1.77;;
7545;SDS011;3814;51.454;12.616;2023-04-19T06:47:40;3.35;;;1.60;;
7545;SDS011;3814;51.454;12.616;2023-04-19T06:50:06;2.97;;;1.63;;
7545;SDS011;3814;51.454;12.616;2023-04-19T06:52:32;3.85;;;1.63;;
7545;SDS011;3814;51.454;12.616;2023-04-19T06:54:57;3.70;;;1.48;;
7545;SDS011;3814;51.454;12.616;2023-04-19T06:57:22;3.42;;;1.40;;
7545;SDS011;3814;51.454;12.616;2023-04-19T06:59:48;3.33;;;1.40;;
7545;SDS011;3814;51.454;12.616;2023-04-19T07:02:13;5.45;;;1.90;;
7545;SDS011;3814;51.454;12.616;2023-04-19T07:04:38;4.13;;;1.80;;
7545;SDS011;3814;51.454;12.616;2023-04-19T07:07:04;5.90;;;1.67;;
7545;SDS011;3814;51.454;12.616;2023-04-19T07:09:29;4.15;;;1.58;;
7545;SDS011;3814;51.454;12.616;2023-04-19T07:11:54;4.03;;;1.77;;
7545;SDS011;3814;51.454;12.616;2023-04-19T07:14:20;3.17;;;1.70;;
7545;SDS011;3814;51.454;12.616;2023-04-19T07:16:45;5.15;;;1.90;;
7545;SDS011;3814;51.454;12.616;2023-04-19T07:19:11;3.13;;;1.40;;
7545;SDS011;3814;51.454;12.616;2023-04-19T07:21:37;3.65;;;1.70;;
7545;SDS011;3814;51.454;12.616;2023-04-19T07:24:03;3.40;;;1.70;;
7545;SDS011;3814;51.454;12.616;2023-04-19T07:26:30;4.85;;;1.90;;
7545;SDS011;3814;51.454;12.616;2023-04-19T07:28:55;3.72;;;1.80;;
7545;SDS011;3814;51.454;12.616;2023-04-19T07:31:21;3.63;;;1.92;;
7545;SDS011;3814;51.454;12.616;2023-04-19T07:33:46;3.30;;;1.60;;
7545;SDS011;3814;51.454;12.616;2023-04-19T07:36:11;3.72;;;1.75;;
7545;SDS011;3814;51.454;12.616;2023-04-19T07:38:37;3.03;;;1.60;;
7545;SDS011;3814;51.454;12.616;2023-04-19T07:41:02;4.32;;;1.73;;
7545;SDS011;3814;51.454;12.616;2023-04-19T07:43:29;4.38;;;1.70;;
7545;SDS011;3814;51.454;12.616;2023-04-19T07:45:57;3.13;;;1.70;;
7545;SDS011;3814;51.454;12.616;2023-04-19T07:48:22;5.18;;;1.88;;
7545;SDS011;3814;51.454;12.616;2023-04-19T07:50:48;4.43;;;1.67;;
7545;SDS011;3814;51.454;12.616;2023-04-19T07:53:14;4.13;;;1.92;;
7545;SDS011;3814;51.454;12.616;2023-04-19T07:55:42;3.60;;;1.73;;
7545;SDS011;3814;51.454;12.616;2023-04-19T08:09:07;3.42;;;1.73;;
7545;SDS011;3814;51.454;12.616;2023-04-19T08:11:32;4.80;;;2.10;;
7545;SDS011;3814;51.454;12.616;2023-04-19T08:13:58;4.68;;;1.70;;
7545;SDS011;3814;51.454;12.616;2023-04-19T08:18:52;5.07;;;2.03;;
7545;SDS011;3814;51.454;12.616;2023-04-19T08:21:19;4.03;;;1.83;;
7545;SDS011;3814;51.454;12.616;2023-04-19T08:23:45;4.50;;;1.60;;
7545;SDS011;3814;51.454;12.616;2023-04-19T08:39:42;3.38;;;1.90;;
7545;SDS011;3814;51.454;12.616;2023-04-19T08:42:30;4.90;;;2.10;;
7545;SDS011;3814;51.454;12.616;2023-04-19T08:44:56;5.20;;;2.20;;
7545;SDS011;3814;51.454;12.616;2023-04-19T08:50:24;6.45;;;2.08;;
7545;SDS011;3814;51.454;12.616;2023-04-19T08:53:03;5.18;;;2.00;;
7545;SDS011;3814;51.454;12.616;2023-04-19T10:00:33;4.05;;;1.90;;
7545;SDS011;3814;51.454;12.616;2023-04-19T10:03:18;4.95;;;2.22;;
7545;SDS011;3814;51.454;12.616;2023-04-19T10:05:48;6.22;;;2.30;;
7545;SDS011;3814;51.454;12.616;2023-04-19T10:15:41;5.22;;;2.33;;
7545;SDS011;3814;51.454;12.616;2023-04-19T10:21:18;5.75;;;2.22;;
7545;SDS011;3814;51.454;12.616;2023-04-19T10:26:20;4.97;;;2.00;;
7545;SDS011;3814;51.454;12.616;2023-04-19T10:28:46;6.20;;;2.20;;
7545;SDS011;3814;51.454;12.616;2023-04-19T10:31:12;7.32;;;2.65;;
7545;SDS011;3814;51.454;12.616;2023-04-19T10:33:38;6.20;;;2.63;;
7545;SDS011;3814;51.454;12.616;2023-04-19T10:36:07;4.70;;;2.13;;
7545;SDS011;3814;51.454;12.616;2023-04-19T10:38:40;4.75;;;2.47;;
7545;SDS011;3814;51.454;12.616;2023-04-19T10:41:08;3.40;;;2.00;;
7545;SDS011;3814;51.454;12.616;2023-04-19T10:48:56;4.05;;;2.13;;
7545;SDS011;3814;51.454;12.616;2023-04-19T10:52:02;4.60;;;2.20;;
7545;SDS011;3814;51.454;12.616;2023-04-19T12:19:46;6.32;;;2.38;;
7545;SDS011;3814;51.454;12.616;2023-04-19T12:22:16;6.10;;;2.60;;
7545;SDS011;3814;51.454;12.616;2023-04-19T12:24:49;5.45;;;3.03;;
7545;SDS011;3814;51.454;12.616;2023-04-19T12:27:16;4.93;;;2.33;;
7545;SDS011;3814;51.454;12.616;2023-04-19T12:29:48;5.22;;;2.50;;
7545;SDS011;3814;51.454;12.616;2023-04-19T12:32:14;4.25;;;2.33;;
7545;SDS011;3814;51.454;12.616;2023-04-19T12:34:40;7.50;;;2.92;;
7545;SDS011;3814;51.454;12.616;2023-04-19T12:37:05;7.15;;;2.55;;
7545;SDS011;3814;51.454;12.616;2023-04-19T12:39:31;5.43;;;2.60;;
7545;SDS011;3814;51.454;12.616;2023-04-19T12:41:56;5.45;;;2.70;;
7545;SDS011;3814;51.454;12.616;2023-04-19T12:44:25;6.25;;;2.72;;
7545;SDS011;3814;51.454;12.616;2023-04-19T12:46:59;6.30;;;2.63;;
7545;SDS011;3814;51.454;12.616;2023-04-19T12:49:28;6.45;;;2.70;;
7545;SDS011;3814;51.454;12.616;2023-04-19T12:51:53;4.38;;;2.33;;
7545;SDS011;3814;51.454;12.616;2023-04-19T12:54:18;6.60;;;2.90;;
7545;SDS011;3814;51.454;12.616;2023-04-19T12:56:44;4.72;;;2.55;;
7545;SDS011;3814;51.454;12.616;2023-04-19T12:59:10;6.15;;;2.50;;
7545;SDS011;3814;51.454;12.616;2023-04-19T13:01:36;4.90;;;2.50;;
7545;SDS011;3814;51.454;12.616;2023-04-19T13:04:04;6.40;;;2.38;;
7545;SDS011;3814;51.454;12.616;2023-04-19T13:06:35;6.18;;;2.30;;
7545;SDS011;3814;51.454;12.616;2023-04-19T13:09:00;6.43;;;2.42;;
7545;SDS011;3814;51.454;12.616;2023-04-19T13:11:27;7.05;;;2.70;;
7545;SDS011;3814;51.454;12.616;2023-04-19T13:13:54;4.45;;;2.20;;
7545;SDS011;3814;51.454;12.616;2023-04-19T13:16:29;3.88;;;2.00;;
7545;SDS011;3814;51.454;12.616;2023-04-19T13:24:04;4.65;;;2.63;;
7545;SDS011;3814;51.454;12.616;2023-04-19T13:26:30;9.00;;;3.30;;
7545;SDS011;3814;51.454;12.616;2023-04-19T13:28:55;5.40;;;2.42;;
7545;SDS011;3814;51.454;12.616;2023-04-19T13:31:24;5.78;;;2.63;;
7545;SDS011;3814;51.454;12.616;2023-04-19T13:33:50;6.07;;;2.53;;
7545;SDS011;3814;51.454;12.616;2023-04-19T13:36:16;4.68;;;2.50;;
7545;SDS011;3814;51.454;12.616;2023-04-19T13:38:42;5.07;;;2.55;;
7545;SDS011;3814;51.454;12.616;2023-04-19T13:41:08;5.45;;;2.50;;
7545;SDS011;3814;51.454;12.616;2023-04-19T13:43:34;5.28;;;2.38;;
7545;SDS011;3814;51.454;12.616;2023-04-19T13:45:59;5.90;;;2.28;;
7545;SDS011;3814;51.454;12.616;2023-04-19T13:48:24;4.45;;;2.30;;
7545;SDS011;3814;51.454;12.616;2023-04-19T13:50:52;6.50;;;2.70;;
7545;SDS011;3814;51.454;12.616;2023-04-19T13:53:19;5.72;;;2.30;;
7545;SDS011;3814;51.454;12.616;2023-04-19T13:55:44;6.32;;;2.40;;
7545;SDS011;3814;51.454;12.616;2023-04-19T13:58:10;6.20;;;2.20;;
7545;SDS011;3814;51.454;12.616;2023-04-19T14:00:35;7.32;;;2.72;;
7545;SDS011;3814;51.454;12.616;2023-04-19T14:03:01;8.48;;;2.30;;
7545;SDS011;3814;51.454;12.616;2023-04-19T14:05:27;4.72;;;2.30;;
7545;SDS011;3814;51.454;12.616;2023-04-19T14:07:52;5.20;;;2.38;;
7545;SDS011;3814;51.454;12.616;2023-04-19T14:10:18;5.15;;;2.67;;
7545;SDS011;3814;51.454;12.616;2023-04-19T14:12:45;5.55;;;2.65;;
7545;SDS011;3814;51.454;12.616;2023-04-19T14:15:11;7.32;;;2.60;;
7545;SDS011;3814;51.454;12.616;2023-04-19T14:17:37;5.97;;;2.30;;
7545;SDS011;3814;51.454;12.616;2023-04-19T14:20:02;6.35;;;2.50;;
7545;SDS011;3814;51.454;12.616;2023-04-19T14:22:31;6.95;;;2.70;;
7545;SDS011;3814;51.454;12.616;2023-04-19T14:24:57;5.72;;;2.55;;
7545;SDS011;3814;51.454;12.616;2023-04-19T14:27:23;6.63;;;3.20;;
7545;SDS011;3814;51.454;12.616;2023-04-19T14:29:48;7.65;;;3.33;;
7545;SDS011;3814;51.454;12.616;2023-04-19T14:32:14;10.55;;;3.92;;
7545;SDS011;3814;51.454;12.616;2023-04-19T14:34:42;7.35;;;3.55;;
7545;SDS011;3814;51.454;12.616;2023-04-19T14:37:08;8.85;;;3.72;;
7545;SDS011;3814;51.454;12.616;2023-04-19T14:39:33;8.70;;;3.70;;
7545;SDS011;3814;51.454;12.616;2023-04-19T14:41:58;8.98;;;3.60;;
7545;SDS011;3814;51.454;12.616;2023-04-19T14:44:23;7.50;;;3.58;;
7545;SDS011;3814;51.454;12.616;2023-04-19T14:46:49;10.75;;;4.43;;
7545;SDS011;3814;51.454;12.616;2023-04-19T14:49:14;9.75;;;4.03;;
7545;SDS011;3814;51.454;12.616;2023-04-19T14:51:39;9.60;;;3.45;;
7545;SDS011;3814;51.454;12.616;2023-04-19T14:54:05;7.78;;;3.22;;
7545;SDS011;3814;51.454;12.616;2023-04-19T14:56:30;8.30;;;3.30;;
7545;SDS011;3814;51.454;12.616;2023-04-19T14:58:55;8.65;;;3.42;;
7545;SDS011;3814;51.454;12.616;2023-04-19T15:01:21;10.27;;;3.92;;
7545;SDS011;3814;51.454;12.616;2023-04-19T15:03:47;7.13;;;3.47;;
7545;SDS011;3814;51.454;12.616;2023-04-19T15:06:13;7.13;;;3.45;;
7545;SDS011;3814;51.454;12.616;2023-04-19T15:08:38;8.30;;;3.80;;
7545;SDS011;3814;51.454;12.616;2023-04-19T15:11:05;7.68;;;3.67;;
7545;SDS011;3814;51.454;12.616;2023-04-19T15:13:30;7.70;;;3.42;;
7545;SDS011;3814;51.454;12.616;2023-04-19T15:15:56;10.75;;;4.00;;
7545;SDS011;3814;51.454;12.616;2023-04-19T15:18:21;7.15;;;3.72;;
7545;SDS011;3814;51.454;12.616;2023-04-19T15:20:46;7.05;;;3.42;;
7545;SDS011;3814;51.454;12.616;2023-04-19T15:23:12;7.85;;;3.60;;
7545;SDS011;3814;51.454;12.616;2023-04-19T15:25:37;8.38;;;3.78;;
7545;SDS011;3814;51.454;12.616;2023-04-19T15:28:03;11.70;;;3.78;;
7545;SDS011;3814;51.454;12.616;2023-04-19T15:30:28;8.93;;;3.70;;
7545;SDS011;3814;51.454;12.616;2023-04-19T15:32:54;8.73;;;4.05;;
7545;SDS011;3814;51.454;12.616;2023-04-19T15:35:19;9.50;;;3.55;;
7545;SDS011;3814;51.454;12.616;2023-04-19T15:37:45;7.72;;;3.47;;
7545;SDS011;3814;51.454;12.616;2023-04-19T15:40:11;58.47;;;6.90;;
7545;SDS011;3814;51.454;12.616;2023-04-19T15:42:41;9.13;;;3.67;;
7545;SDS011;3814;51.454;12.616;2023-04-19T15:45:09;6.97;;;3.60;;
7545;SDS011;3814;51.454;12.616;2023-04-19T15:47:35;9.52;;;3.97;;
7545;SDS011;3814;51.454;12.616;2023-04-19T15:50:00;7.07;;;3.40;;
7545;SDS011;3814;51.454;12.616;2023-04-19T15:52:25;8.23;;;3.70;;
7545;SDS011;3814;51.454;12.616;2023-04-19T15:54:51;8.98;;;3.60;;
7545;SDS011;3814;51.454;12.616;2023-04-19T15:57:16;7.50;;;3.58;;
7545;SDS011;3814;51.454;12.616;2023-04-19T15:59:42;10.05;;;3.47;;
7545;SDS011;3814;51.454;12.616;2023-04-19T16:02:07;7.13;;;3.35;;
7545;SDS011;3814;51.454;12.616;2023-04-19T16:04:33;8.98;;;3.65;;
7545;SDS011;3814;51.454;12.616;2023-04-19T16:06:58;8.27;;;3.90;;
7545;SDS011;3814;51.454;12.616;2023-04-19T16:09:26;10.23;;;4.13;;
7545;SDS011;3814;51.454;12.616;2023-04-19T16:11:52;7.72;;;3.70;;
7545;SDS011;3814;51.454;12.616;2023-04-19T16:14:17;8.30;;;3.90;;
7545;SDS011;3814;51.454;12.616;2023-04-19T16:16:43;7.20;;;3.40;;
7545;SDS011;3814;51.454;12.616;2023-04-19T16:19:08;6.82;;;3.53;;
7545;SDS011;3814;51.454;12.616;2023-04-19T16:21:33;7.70;;;3.70;;
7545;SDS011;3814;51.454;12.616;2023-04-19T16:23:59;9.85;;;4.00;;
7545;SDS011;3814;51.454;12.616;2023-04-19T16:26:24;7.18;;;3.42;;
7545;SDS011;3814;51.454;12.616;2023-04-19T16:28:50;6.30;;;3.80;;
7545;SDS011;3814;51.454;12.616;2023-04-19T16:31:16;7.70;;;3.80;;
7545;SDS011;3814;51.454;12.616;2023-04-19T16:33:41;9.15;;;3.80;;
7545;SDS011;3814;51.454;12.616;2023-04-19T16:36:07;6.82;;;3.42;;
7545;SDS011;3814;51.454;12.616;2023-04-19T16:38:33;7.40;;;3.55;;
7545;SDS011;3814;51.454;12.616;2023-04-19T16:41:01;8.48;;;4.03;;
7545;SDS011;3814;51.454;12.616;2023-04-19T16:43:32;7.47;;;3.97;;
7545;SDS011;3814;51.454;12.616;2023-04-19T16:46:00;6.50;;;3.20;;
7545;SDS011;3814;51.454;12.616;2023-04-19T16:48:26;6.90;;;3.40;;
7545;SDS011;3814;51.454;12.616;2023-04-19T16:58:35;9.05;;;3.67;;
7545;SDS011;3814;51.454;12.616;2023-04-19T17:01:06;10.65;;;4.90;;
7545;SDS011;3814;51.454;12.616;2023-04-19T17:03:32;11.70;;;4.85;;
7545;SDS011;3814;51.454;12.616;2023-04-19T17:05:59;14.60;;;6.22;;
7545;SDS011;3814;51.454;12.616;2023-04-19T17:08:28;9.93;;;4.60;;
7545;SDS011;3814;51.454;12.616;2023-04-19T17:10:53;6.97;;;3.67;;
7545;SDS011;3814;51.454;12.616;2023-04-19T17:13:22;7.22;;;3.40;;
7545;SDS011;3814;51.454;12.616;2023-04-19T17:18:43;7.80;;;3.38;;
7545;SDS011;3814;51.454;12.616;2023-04-19T17:21:08;7.28;;;3.15;;
7545;SDS011;3814;51.454;12.616;2023-04-19T17:23:36;11.10;;;4.53;;
7545;SDS011;3814;51.454;12.616;2023-04-19T17:26:02;22.95;;;8.23;;
7545;SDS011;3814;51.454;12.616;2023-04-19T17:28:27;30.60;;;10.10;;
7545;SDS011;3814;51.454;12.616;2023-04-19T17:30:52;14.57;;;5.53;;
7545;SDS011;3814;51.454;12.616;2023-04-19T17:33:18;9.60;;;4.20;;
7545;SDS011;3814;51.454;12.616;2023-04-19T17:35:43;9.23;;;3.65;;
7545;SDS011;3814;51.454;12.616;2023-04-19T17:38:08;10.57;;;4.13;;
7545;SDS011;3814;51.454;12.616;2023-04-19T17:40:35;11.07;;;4.05;;
7545;SDS011;3814;51.454;12.616;2023-04-19T17:43:00;10.10;;;3.72;;
7545;SDS011;3814;51.454;12.616;2023-04-19T17:45:26;7.55;;;3.75;;
7545;SDS011;3814;51.454;12.616;2023-04-19T17:47:51;8.35;;;3.75;;
7545;SDS011;3814;51.454;12.616;2023-04-19T17:50:17;7.90;;;3.25;;
7545;SDS011;3814;51.454;12.616;2023-04-19T17:52:42;9.40;;;4.07;;
7545;SDS011;3814;51.454;12.616;2023-04-19T17:55:07;13.05;;;4.68;;
7545;SDS011;3814;51.454;12.616;2023-04-19T17:57:33;10.35;;;4.15;;
7545;SDS011;3814;51.454;12.616;2023-04-19T17:59:59;8.40;;;4.03;;
7545;SDS011;3814;51.454;12.616;2023-04-19T18:02:24;10.00;;;4.65;;
7545;SDS011;3814;51.454;12.616;2023-04-19T18:04:50;10.88;;;3.90;;
7545;SDS011;3814;51.454;12.616;2023-04-19T18:07:16;8.85;;;4.30;;
7545;SDS011;3814;51.454;12.616;2023-04-19T18:09:41;10.48;;;4.40;;
7545;SDS011;3814;51.454;12.616;2023-04-19T18:12:06;9.63;;;4.63;;
7545;SDS011;3814;51.454;12.616;2023-04-19T18:14:32;11.40;;;4.82;;
7545;SDS011;3814;51.454;12.616;2023-04-19T18:16:58;10.38;;;4.57;;
7545;SDS011;3814;51.454;12.616;2023-04-19T18:19:23;9.38;;;4.45;;
7545;SDS011;3814;51.454;12.616;2023-04-19T18:21:50;8.45;;;4.22;;
7545;SDS011;3814;51.454;12.616;2023-04-19T18:24:15;9.05;;;4.00;;
7545;SDS011;3814;51.454;12.616;2023-04-19T18:26:41;8.02;;;4.13;;
7545;SDS011;3814;51.454;12.616;2023-04-19T18:29:07;10.65;;;4.50;;
7545;SDS011;3814;51.454;12.616;2023-04-19T18:31:32;11.70;;;4.38;;
7545;SDS011;3814;51.454;12.616;2023-04-19T18:33:59;10.25;;;4.45;;
7545;SDS011;3814;51.454;12.616;2023-04-19T18:36:24;10.60;;;4.63;;
7545;SDS011;3814;51.454;12.616;2023-04-19T18:38:50;10.75;;;4.70;;
7545;SDS011;3814;51.454;12.616;2023-04-19T18:41:15;9.77;;;4.47;;
7545;SDS011;3814;51.454;12.616;2023-04-19T18:43:41;9.88;;;4.68;;
7545;SDS011;3814;51.454;12.616;2023-04-19T18:46:06;8.95;;;4.35;;
7545;SDS011;3814;51.454;12.616;2023-04-19T18:51:08;9.02;;;4.28;;
7545;SDS011;3814;51.454;12.616;2023-04-19T18:53:34;8.07;;;4.20;;
7545;SDS011;3814;51.454;12.616;2023-04-19T18:55:59;9.07;;;4.38;;
7545;SDS011;3814;51.454;12.616;2023-04-19T18:58:25;9.10;;;4.30;;
7545;SDS011;3814;51.454;12.616;2023-04-19T19:00:51;9.23;;;4.68;;
7545;SDS011;3814;51.454;12.616;2023-04-19T19:03:16;9.43;;;4.63;;
7545;SDS011;3814;51.454;12.616;2023-04-19T19:05:42;10.27;;;4.38;;
7545;SDS011;3814;51.454;12.616;2023-04-19T19:08:07;9.93;;;4.50;;
7545;SDS011;3814;51.454;12.616;2023-04-19T19:10:32;10.23;;;4.45;;
7545;SDS011;3814;51.454;12.616;2023-04-19T19:12:58;10.90;;;4.63;;
7545;SDS011;3814;51.454;12.616;2023-04-19T19:15:23;8.55;;;4.30;;
7545;SDS011;3814;51.454;12.616;2023-04-19T19:17:48;8.07;;;4.13;;
7545;SDS011;3814;51.454;12.616;2023-04-19T19:20:14;9.95;;;4.10;;
7545;SDS011;3814;51.454;12.616;2023-04-19T19:22:40;9.15;;;4.50;;
7545;SDS011;3814;51.454;12.616;2023-04-19T19:25:05;7.63;;;3.80;;
7545;SDS011;3814;51.454;12.616;2023-04-19T19:27:31;7.82;;;3.90;;
7545;SDS011;3814;51.454;12.616;2023-04-19T19:29:56;8.13;;;3.60;;
7545;SDS011;3814;51.454;12.616;2023-04-19T19:32:22;6.82;;;3.60;;
7545;SDS011;3814;51.454;12.616;2023-04-19T19:34:48;7.25;;;3.45;;
7545;SDS011;3814;51.454;12.616;2023-04-19T19:37:14;8.00;;;4.10;;
7545;SDS011;3814;51.454;12.616;2023-04-19T19:39:40;7.22;;;3.78;;
7545;SDS011;3814;51.454;12.616;2023-04-19T19:42:09;7.70;;;3.90;;
7545;SDS011;3814;51.454;12.616;2023-04-19T19:44:36;7.63;;;3.65;;
7545;SDS011;3814;51.454;12.616;2023-04-19T19:47:01;6.57;;;3.55;;
7545;SDS011;3814;51.454;12.616;2023-04-19T19:49:26;6.80;;;3.60;;
7545;SDS011;3814;51.454;12.616;2023-04-19T19:51:52;7.05;;;3.40;;
7545;SDS011;3814;51.454;12.616;2023-04-19T19:54:17;7.53;;;3.40;;
7545;SDS011;3814;51.454;12.616;2023-04-19T19:56:42;6.80;;;3.58;;
7545;SDS011;3814;51.454;12.616;2023-04-19T19:59:07;6.50;;;3.22;;
7545;SDS011;3814;51.454;12.616;2023-04-19T20:01:33;6.30;;;3.17;;
7545;SDS011;3814;51.454;12.616;2023-04-19T20:03:58;6.18;;;3.17;;
7545;SDS011;3814;51.454;12.616;2023-04-19T20:06:24;6.45;;;3.40;;
7545;SDS011;3814;51.454;12.616;2023-04-19T20:08:49;7.15;;;3.60;;
7545;SDS011;3814;51.454;12.616;2023-04-19T20:11:15;6.38;;;3.30;;
7545;SDS011;3814;51.454;12.616;2023-04-19T20:13:40;8.07;;;3.53;;
7545;SDS011;3814;51.454;12.616;2023-04-19T20:16:05;6.43;;;3.15;;
7545;SDS011;3814;51.454;12.616;2023-04-19T20:18:34;6.65;;;3.40;;
7545;SDS011;3814;51.454;12.616;2023-04-19T20:21:01;6.90;;;3.30;;
7545;SDS011;3814;51.454;12.616;2023-04-19T20:23:27;8.32;;;3.60;;
7545;SDS011;3814;51.454;12.616;2023-04-19T20:25:52;8.57;;;4.00;;
7545;SDS011;3814;51.454;12.616;2023-04-19T20:28:17;7.63;;;3.85;;
7545;SDS011;3814;51.454;12.616;2023-04-19T20:30:43;9.32;;;4.10;;
7545;SDS011;3814;51.454;12.616;2023-04-19T20:33:08;7.47;;;3.80;;
7545;SDS011;3814;51.454;12.616;2023-04-19T20:35:33;7.22;;;3.53;;
7545;SDS011;3814;51.454;12.616;2023-04-19T20:38:00;8.30;;;3.72;;
7545;SDS011;3814;51.454;12.616;2023-04-19T20:40:29;6.55;;;3.53;;
7545;SDS011;3814;51.454;12.616;2023-04-19T20:42:54;8.32;;;3.53;;
7545;SDS011;3814;51.454;12.616;2023-04-19T20:45:20;7.53;;;3.80;;
7545;SDS011;3814;51.454;12.616;2023-04-19T20:47:46;8.05;;;3.65;;
7545;SDS011;3814;51.454;12.616;2023-04-19T20:50:12;8.07;;;3.90;;
7545;SDS011;3814;51.454;12.616;2023-04-19T20:52:37;8.30;;;4.03;;
7545;SDS011;3814;51.454;12.616;2023-04-19T20:55:03;9.73;;;4.20;;
7545;SDS011;3814;51.454;12.616;2023-04-19T20:57:28;9.07;;;4.40;;
7545;SDS011;3814;51.454;12.616;2023-04-19T20:59:54;8.15;;;4.30;;
7545;SDS011;3814;51.454;12.616;2023-04-19T21:02:19;7.95;;;3.92;;
7545;SDS011;3814;51.454;12.616;2023-04-19T21:04:44;8.77;;;4.03;;
7545;SDS011;3814;51.454;12.616;2023-04-19T21:07:10;7.80;;;4.00;;
7545;SDS011;3814;51.454;12.616;2023-04-19T21:09:35;8.40;;;4.50;;
7545;SDS011;3814;51.454;12.616;2023-04-19T21:12:01;8.55;;;4.00;;
7545;SDS011;3814;51.454;12.616;2023-04-19T21:14:26;8.70;;;4.20;;
7545;SDS011;3814;51.454;12.616;2023-04-19T21:16:55;8.90;;;4.45;;
7545;SDS011;3814;51.454;12.616;2023-04-19T21:19:20;7.70;;;4.20;;
7545;SDS011;3814;51.454;12.616;2023-04-19T21:21:45;9.13;;;4.38;;
7545;SDS011;3814;51.454;12.616;2023-04-19T21:24:11;8.85;;;4.68;;
7545;SDS011;3814;51.454;12.616;2023-04-19T21:26:36;9.80;;;4.45;;
7545;SDS011;3814;51.454;12.616;2023-04-19T21:29:01;9.18;;;4.47;;
7545;SDS011;3814;51.454;12.616;2023-04-19T21:31:26;8.98;;;4.20;;
7545;SDS011;3814;51.454;12.616;2023-04-19T21:33:52;9.48;;;4.25;;
7545;SDS011;3814;51.454;12.616;2023-04-19T21:36:17;10.65;;;4.43;;
7545;SDS011;3814;51.454;12.616;2023-04-19T21:38:43;11.40;;;4.47;;
7545;SDS011;3814;51.454;12.616;2023-04-19T21:41:08;11.13;;;4.50;;
7545;SDS011;3814;51.454;12.616;2023-04-19T21:43:34;10.68;;;4.80;;
7545;SDS011;3814;51.454;12.616;2023-04-19T21:46:00;10.25;;;4.90;;
7545;SDS011;3814;51.454;12.616;2023-04-19T21:48:28;8.82;;;4.57;;
7545;SDS011;3814;51.454;12.616;2023-04-19T21:50:53;11.30;;;4.68;;
7545;SDS011;3814;51.454;12.616;2023-04-19T21:53:19;9.18;;;4.40;;
7545;SDS011;3814;51.454;12.616;2023-04-19T21:55:46;10.00;;;4.47;;
7545;SDS011;3814;51.454;12.616;2023-04-19T21:58:15;11.25;;;4.63;;
7545;SDS011;3814;51.454;12.616;2023-04-19T22:00:41;8.95;;;4.60;;
7545;SDS011;3814;51.454;12.616;2023-04-19T22:03:06;10.95;;;5.22;;
7545;SDS011;3814;51.454;12.616;2023-04-19T22:05:32;10.95;;;5.38;;
7545;SDS011;3814;51.454;12.616;2023-04-19T22:07:57;10.43;;;4.88;;
7545;SDS011;3814;51.454;12.616;2023-04-19T22:10:23;10.48;;;4.90;;
7545;SDS011;3814;51.454;12.616;2023-04-19T22:12:48;13.70;;;5.80;;
7545;SDS011;3814;51.454;12.616;2023-04-19T22:15:13;13.20;;;5.50;;
7545;SDS011;3814;51.454;12.616;2023-04-19T22:17:40;13.10;;;5.63;;
7545;SDS011;3814;51.454;12.616;2023-04-19T22:20:06;10.77;;;5.15;;
7545;SDS011;3814;51.454;12.616;2023-04-19T22:22:36;12.18;;;5.32;;
7545;SDS011;3814;51.454;12.616;2023-04-19T22:25:02;13.32;;;5.80;;
7545;SDS011;3814;51.454;12.616;2023-04-19T22:27:27;11.40;;;5.93;;
7545;SDS011;3814;51.454;12.616;2023-04-19T22:29:52;14.18;;;5.80;;
7545;SDS011;3814;51.454;12.616;2023-04-19T22:32:18;11.63;;;5.15;;
7545;SDS011;3814;51.454;12.616;2023-04-19T22:34:44;11.52;;;5.60;;
7545;SDS011;3814;51.454;12.616;2023-04-19T22:37:09;12.55;;;5.82;;
7545;SDS011;3814;51.454;12.616;2023-04-19T22:39:35;12.57;;;5.68;;
7545;SDS011;3814;51.454;12.616;2023-04-19T22:42:00;11.20;;;5.38;;
7545;SDS011;3814;51.454;12.616;2023-04-19T22:44:26;13.18;;;5.40;;
7545;SDS011;3814;51.454;12.616;2023-04-19T22:46:51;11.73;;;5.63;;
7545;SDS011;3814;51.454;12.616;2023-04-19T22:49:16;12.60;;;5.70;;
7545;SDS011;3814;51.454;12.616;2023-04-19T22:51:42;13.15;;;5.85;;
7545;SDS011;3814;51.454;12.616;2023-04-19T22:54:09;11.55;;;5.35;;
7545;SDS011;3814;51.454;12.616;2023-04-19T22:56:34;10.80;;;5.53;;
7545;SDS011;3814;51.454;12.616;2023-04-19T22:58:59;10.25;;;5.15;;
7545;SDS011;3814;51.454;12.616;2023-04-19T23:01:25;10.65;;;5.50;;
7545;SDS011;3814;51.454;12.616;2023-04-19T23:03:50;11.27;;;5.70;;
7545;SDS011;3814;51.454;12.616;2023-04-19T23:06:15;11.52;;;5.63;;
7545;SDS011;3814;51.454;12.616;2023-04-19T23:08:41;12.15;;;5.90;;
7545;SDS011;3814;51.454;12.616;2023-04-19T23:11:07;11.80;;;5.28;;
7545;SDS011;3814;51.454;12.616;2023-04-19T23:13:34;10.57;;;5.57;;
7545;SDS011;3814;51.454;12.616;2023-04-19T23:15:59;10.30;;;5.07;;
7545;SDS011;3814;51.454;12.616;2023-04-19T23:18:25;10.82;;;4.93;;
7545;SDS011;3814;51.454;12.616;2023-04-19T23:20:50;11.68;;;5.57;;